Etusivu
METAR-TAF:

METAR-TAF

Lentoasemat :

Wattisham, Englanti

Leveyspiiri: 52-07N, Pituuspiiri: 000-58E, korkeus merenpinnasta: 87 m

Tämänhetkinen sää

Tämä raportti tehtiin 47 minuuttia sitten, kello 10.50 UTC
Tuuli 11 kn lännestä/lounaasta
Lämpötila 4°C
Kosteus 93%
Ilmanpaine 1021 hPa
Näkyvyys 10 km tai enemmän
Muutamia pilviä 800 ft:n korkeudessa
Hajonneita pilviä 25000 ft:n korkeudessa

METAR: EGUW 181050Z 24011KT 9999 FEW008 BKN250 04/03 Q1021 NOSIG RMK BLU BLU

Aika: 11:37 (11:37 UTC)

Sääennuste

Tämä raportti tehtiin 3 tuntia ja 6 minuuttia sitten, kello 08.31 UTC
Ennuste voimassa 18. päivästä klo 09 UTC - 18. päivään klo 18 UTC
Tuuli 12 kn lännestä/lounaasta
Näkyvyys 10 km tai enemmän
Hajonneita pilviä 4000 ft:n korkeudessa

TAF: EGUW 180831Z 1809/1818 24012KT 9999 BKN040

Säähavainnot ja -ennusteet yli 4000 lentoasemalta (METAR- ja TAF-raportit).

Käytössä olevat sääasemat on merkitty karttaan keltaisilla ja punaisilla pisteillä.

Aseta hiiri pisteen päälle nähdäksesi sääaseman nimen.

Klikkaa sitten nähdäksesi säähavainnot ja -ennusteet.

Kartan vaihtaminen: klikkaa mustalla rastilla varustettuja vihreitä pisteitä, niin voit zoomata sisään; viivalla varustettua vihreää pistettä, niin voit zoomata ulos tai vihreitä nuolia, niin pääset viereisille kartoille.


METAR-TAF: